Aviation Digital Data Service (ADDS)

Output produced by METARs form (1911 UTC 25 June 2017)
found at http://www.aviationweather.gov/adds/metars/
 
LHSM 251845Z 02005KT 9999 TS SCT035CB BKN056 20/17 Q1013
TAF LHSM 251115Z 2512/2521 13005KT 9999 SCT030 SCT090 
     BECMG 2514/2517 34014G28KT 9999 BKN025 BKN080 
     TEMPO 2514/2521 VRB24G38KT 6000 SHRA TSRA BKN020CB
       
LHDC 251845Z 25013KT 5000 TSRA BKN020CB 21/19 Q1014 NOSIG
TAF LHDC 251715Z 2518/2603 24008KT 9999 SCT040 SCT100 
     TEMPO 2518/2603 VRB18G32KT 6000 SHRA TSRA BKN035CB 
     PROB40 
     TEMPO 2521/2524 VRB28G42KT 4000 TSRA TSGR BKN020CB
       
LHBP 251900Z VRB01KT 9999 FEW010 BKN100 21/20 Q1012 NOSIG
TAF LHBP 251715Z 2518/2618 27007KT CAVOK 
     TEMPO 2518/2524 VRB22G35KT 2500 TSRA SQ BKN008 BKN025CB 
     BECMG 2606/2609 29012G22KT SCT040 
     BECMG 2609/2611 CAVOK 
     BECMG 2616/2618 23005KT
       
LHKE 251845Z VRB02KT 9999 FEW030CB BKN100 18/17 Q1011 NOSIG RMK BLU
TAF LHKE 251715Z 2518/2603 21005KT CAVOK 
     TEMPO 2518/2603 VRB15G30KT 4000 SHRA TSRA FEW010 SCT030CB BKN040TCU 
     BECMG 2520/2523 27008KT
       
LHPA 251845Z 01002KT 9999 SCT027TCU BKN047 20/17 Q1013 NOSIG RMK BLU
TAF LHPA 251715Z 2518/2618 31009KT 9999 SCT030TCU BKN083 BKN200 
     TEMPO 2518/2522 VRB18G36KT 5000 SHRA TSRA SCT010 BKN030CB BKN050TCU OVC200 
     BECMG 2522/2524 VRB03KT CAVOK 
     TEMPO 2600/2605 3000 BR SCT080 BKN200 
     BECMG 2605/2607 28005KT
       
LHSN 251845Z 13008KT 8000 FEW050TCU BKN083 20/19 Q1011 RESHRA NOSIG RMK BLU
TAF LHSN 251715Z 2518/2603 24007KT 9999 SCT040TCU BKN083 
     TEMPO 2518/2601 5000 SHRA RA SCT033TCU BKN070 
     PROB30 
     TEMPO 2518/2524 VRB19G38KT 3000 TSRA TSGR FEW010 SCT020CB BKN040TCU OVC060 
     BECMG 2601/2603 27005KT CAVOK